createdAt,value
2018-09-20T00:01:04.425Z,4.12
2018-09-20T00:03:32.820Z,3.77
2018-09-20T00:06:00.953Z,3.70
2018-09-20T00:08:29.592Z,4.22
2018-09-20T00:10:58.001Z,3.67
2018-09-20T00:13:26.481Z,3.60
2018-09-20T00:15:54.889Z,3.52
2018-09-20T00:18:23.309Z,3.42
2018-09-20T00:20:51.713Z,3.67
2018-09-20T00:23:20.157Z,3.77
2018-09-20T00:25:48.573Z,3.58
2018-09-20T00:28:16.997Z,3.58
2018-09-20T00:30:45.396Z,3.52
2018-09-20T00:33:13.824Z,3.55
2018-09-20T00:35:42.429Z,3.40
2018-09-20T00:38:10.852Z,3.30
2018-09-20T00:40:39.270Z,3.27
2018-09-20T00:43:07.680Z,3.50
2018-09-20T00:45:36.120Z,3.55
2018-09-20T00:48:04.610Z,3.00
2018-09-20T00:50:33.034Z,3.50
2018-09-20T00:53:01.442Z,3.25
2018-09-20T00:55:29.884Z,3.10
2018-09-20T00:57:58.349Z,3.37
2018-09-20T01:00:26.445Z,3.52
2018-09-20T01:02:54.881Z,3.45
2018-09-20T01:05:23.576Z,3.17
2018-09-20T01:07:52.021Z,3.45
2018-09-20T01:10:20.488Z,3.60
2018-09-20T01:12:48.933Z,3.37
2018-09-20T01:15:17.386Z,3.30
2018-09-20T01:17:45.807Z,3.17
2018-09-20T01:20:14.221Z,3.77
2018-09-20T01:22:42.640Z,3.67
2018-09-20T01:25:11.067Z,3.92
2018-09-20T01:27:39.623Z,3.35
2018-09-20T01:30:08.144Z,3.17
2018-09-20T01:32:36.558Z,3.52
2018-09-20T01:35:05.197Z,3.33
2018-09-20T01:37:33.652Z,3.60
2018-09-20T01:40:02.058Z,3.62
2018-09-20T01:42:30.485Z,3.47
2018-09-20T01:44:58.908Z,4.00
2018-09-20T01:47:27.370Z,3.20
2018-09-20T01:49:55.783Z,3.67
2018-09-20T01:52:24.241Z,3.65
2018-09-20T01:54:52.689Z,3.30
2018-09-20T01:57:21.121Z,3.45
2018-09-20T01:59:49.545Z,3.02
2018-09-20T02:02:17.934Z,3.50
2018-09-20T02:04:46.350Z,3.33
2018-09-20T02:07:14.456Z,3.35
2018-09-20T02:09:42.901Z,3.37
2018-09-20T02:12:11.293Z,3.72
2018-09-20T02:14:39.745Z,3.65
2018-09-20T02:17:08.157Z,3.55
2018-09-20T02:19:36.581Z,4.22
2018-09-20T02:22:05.033Z,3.37
2018-09-20T02:24:33.473Z,3.75
2018-09-20T02:27:01.593Z,3.40
2018-09-20T02:29:30.016Z,3.17
2018-09-20T02:31:58.125Z,3.55
2018-09-20T02:34:26.545Z,2.95
2018-09-20T02:36:54.652Z,3.42
2018-09-20T02:39:23.093Z,3.15
2018-09-20T02:41:51.503Z,3.45
2018-09-20T02:44:19.618Z,3.67
2018-09-20T02:46:48.027Z,3.40
2018-09-20T02:49:16.436Z,3.65
2018-09-20T02:51:44.847Z,3.83
2018-09-20T02:54:13.278Z,3.47
2018-09-20T02:56:41.712Z,3.77
2018-09-20T02:59:10.198Z,3.08
2018-09-20T03:01:38.571Z,3.10
2018-09-20T03:04:07.028Z,3.42
2018-09-20T03:06:35.432Z,3.37
2018-09-20T03:09:05.113Z,3.00
2018-09-20T03:11:33.522Z,3.25
2018-09-20T03:14:01.969Z,3.35
2018-09-20T03:16:30.355Z,2.98
2018-09-20T03:18:58.860Z,3.08
2018-09-20T03:21:27.263Z,3.33
2018-09-20T03:23:55.727Z,3.72
2018-09-20T03:26:24.415Z,3.35
2018-09-20T03:28:52.865Z,3.00
2018-09-20T03:31:21.302Z,3.08
2018-09-20T03:33:49.718Z,3.22
2018-09-20T03:36:17.801Z,3.72
2018-09-20T03:38:46.321Z,3.12
2018-09-20T03:41:14.811Z,3.80
2018-09-20T03:43:43.209Z,3.30
2018-09-20T03:46:11.636Z,3.27
2018-09-20T03:48:40.049Z,2.98
2018-09-20T03:51:08.474Z,3.20
2018-09-20T03:53:36.883Z,3.00
2018-09-20T03:56:05.406Z,2.90
2018-09-20T03:58:33.769Z,3.17
2018-09-20T04:01:02.284Z,2.70
2018-09-20T04:03:30.762Z,3.15
2018-09-20T04:05:59.194Z,2.90
2018-09-20T04:08:27.722Z,2.85
2018-09-20T04:10:56.165Z,3.02
2018-09-20T04:13:24.602Z,2.67
2018-09-20T04:15:53.025Z,2.62
2018-09-20T04:18:21.433Z,3.60
2018-09-20T04:20:49.873Z,2.85
2018-09-20T04:23:18.288Z,2.67
2018-09-20T04:25:46.733Z,2.85
2018-09-20T04:28:15.132Z,3.20
2018-09-20T04:30:43.552Z,2.80
2018-09-20T04:33:11.955Z,2.98
2018-09-20T04:35:40.401Z,2.90
2018-09-20T04:38:08.809Z,2.83
2018-09-20T04:40:37.229Z,2.70
2018-09-20T04:43:06.041Z,3.52
2018-09-20T04:45:34.474Z,4.35
2018-09-20T04:48:02.887Z,3.60
2018-09-20T04:50:31.317Z,3.45
2018-09-20T04:52:59.400Z,3.50
2018-09-20T04:55:27.813Z,3.22
2018-09-20T04:57:56.244Z,3.35
2018-09-20T05:00:24.633Z,3.52
2018-09-20T05:02:53.059Z,3.98
2018-09-20T05:05:21.493Z,3.45
2018-09-20T05:07:49.922Z,3.22
2018-09-20T05:10:18.361Z,3.72
2018-09-20T05:12:46.863Z,3.65
2018-09-20T05:15:15.259Z,3.25
2018-09-20T05:17:43.711Z,3.40
2018-09-20T05:20:12.202Z,3.42
2018-09-20T05:22:40.593Z,3.55
2018-09-20T05:25:09.046Z,3.60
2018-09-20T05:27:37.476Z,3.50
2018-09-20T05:30:06.229Z,3.60
2018-09-20T05:32:34.701Z,3.55
2018-09-20T05:35:03.133Z,3.70
2018-09-20T05:37:31.884Z,3.37
2018-09-20T05:40:00.293Z,3.35
2018-09-20T05:42:28.717Z,3.15
2018-09-20T05:44:56.801Z,3.00
2018-09-20T05:47:25.413Z,3.60
2018-09-20T05:49:53.555Z,3.30
2018-09-20T05:52:21.997Z,3.17
2018-09-20T05:54:50.429Z,3.17
2018-09-20T05:57:18.865Z,3.30
2018-09-20T05:59:47.280Z,3.40
2018-09-20T06:02:15.743Z,3.50
2018-09-20T06:04:44.140Z,2.85
2018-09-20T06:07:12.292Z,3.58
2018-09-20T06:09:40.781Z,3.05
2018-09-20T06:12:09.208Z,3.27
2018-09-20T06:14:37.642Z,3.85
2018-09-20T06:17:06.123Z,3.17
2018-09-20T06:19:34.537Z,2.85
2018-09-20T06:22:03.030Z,2.95
2018-09-20T06:24:31.144Z,2.62
2018-09-20T06:26:59.566Z,2.45
2018-09-20T06:29:27.987Z,3.67
2018-09-20T06:31:56.148Z,2.55
2018-09-20T06:34:24.252Z,2.65
2018-09-20T06:36:52.713Z,2.17
2018-09-20T06:39:21.101Z,2.50
2018-09-20T06:41:49.572Z,2.55
2018-09-20T06:44:17.960Z,3.17
2018-09-20T06:46:46.383Z,2.22
2018-09-20T06:49:14.861Z,2.58
2018-09-20T06:51:43.252Z,2.50
2018-09-20T06:54:11.750Z,2.25
2018-09-20T06:56:40.202Z,2.55
2018-09-20T06:59:08.636Z,3.15
2018-09-20T07:01:37.013Z,2.05
2018-09-20T07:04:05.444Z,2.52
2018-09-20T07:06:33.872Z,2.35
2018-09-20T07:09:02.064Z,2.52
2018-09-20T07:11:30.495Z,2.42
2018-09-20T07:13:58.629Z,2.60
2018-09-20T07:16:27.046Z,2.37
2018-09-20T07:18:55.502Z,2.17
2018-09-20T07:21:23.920Z,2.02
2018-09-20T07:23:52.333Z,2.02
2018-09-20T07:26:20.733Z,2.15
2018-09-20T07:28:49.157Z,2.17
2018-09-20T07:31:17.568Z,2.37
2018-09-20T07:33:46.042Z,1.95
2018-09-20T07:36:14.428Z,1.80
2018-09-20T07:38:42.929Z,2.10
2018-09-20T07:41:11.786Z,2.12
2018-09-20T07:43:40.296Z,2.22
2018-09-20T07:46:08.393Z,2.58
2018-09-20T07:48:36.837Z,2.10
2018-09-20T07:51:05.290Z,2.15
2018-09-20T07:53:33.714Z,2.27
2018-09-20T07:56:02.164Z,2.10
2018-09-20T07:58:30.741Z,2.30
2018-09-20T08:00:59.199Z,2.12
2018-09-20T08:03:27.627Z,1.98
2018-09-20T08:05:56.067Z,1.57
2018-09-20T08:08:24.684Z,2.30
2018-09-20T08:10:53.128Z,1.92
2018-09-20T08:13:21.551Z,2.50
2018-09-20T08:15:49.989Z,1.80
2018-09-20T08:18:18.441Z,2.20
2018-09-20T08:20:47.348Z,2.72
2018-09-20T08:23:15.788Z,2.50
2018-09-20T08:25:44.208Z,2.33
2018-09-20T08:28:12.783Z,2.70
2018-09-20T08:30:41.240Z,2.27
2018-09-20T08:33:09.719Z,2.08
2018-09-20T08:35:38.188Z,1.80
2018-09-20T08:38:06.633Z,2.55
2018-09-20T08:40:35.080Z,2.12
2018-09-20T08:43:03.505Z,1.90
2018-09-20T08:45:31.940Z,2.02
2018-09-20T08:48:00.348Z,2.25
2018-09-20T08:50:28.780Z,2.17
2018-09-20T08:52:57.218Z,2.10
2018-09-20T08:55:25.668Z,2.12
2018-09-20T08:57:57.053Z,2.00
2018-09-20T09:00:26.489Z,2.08
2018-09-20T09:02:54.948Z,2.15
2018-09-20T09:05:23.084Z,2.12
2018-09-20T09:07:51.504Z,2.27
2018-09-20T09:10:19.993Z,2.27
2018-09-20T09:12:48.409Z,2.17
2018-09-20T09:15:16.865Z,1.80
2018-09-20T09:17:45.457Z,1.98
2018-09-20T09:20:13.932Z,2.00
2018-09-20T09:22:42.319Z,2.62
2018-09-20T09:25:10.448Z,2.22
2018-09-20T09:27:38.532Z,2.05
2018-09-20T09:30:07.187Z,2.20
2018-09-20T09:32:35.585Z,1.95
2018-09-20T09:35:03.724Z,1.87
2018-09-20T09:37:32.117Z,1.72
2018-09-20T09:40:00.553Z,2.40
2018-09-20T09:42:28.963Z,1.85
2018-09-20T09:44:57.381Z,2.15
2018-09-20T09:47:25.781Z,2.35
2018-09-20T09:49:54.239Z,1.80
2018-09-20T09:52:23.024Z,2.50
2018-09-20T09:54:51.488Z,2.30
2018-09-20T09:57:19.916Z,2.40
2018-09-20T09:59:48.374Z,2.20
2018-09-20T10:02:16.858Z,2.15
2018-09-20T10:04:45.289Z,2.05
2018-09-20T10:07:13.790Z,2.10
2018-09-20T10:09:42.389Z,2.42
2018-09-20T10:12:10.841Z,2.15
2018-09-20T10:14:39.235Z,2.50
2018-09-20T10:17:07.705Z,2.50
2018-09-20T10:19:36.097Z,2.50
2018-09-20T10:22:04.560Z,2.47
2018-09-20T10:24:32.957Z,2.20
2018-09-20T10:27:01.501Z,2.52
2018-09-20T10:29:29.921Z,2.35
2018-09-20T10:31:58.385Z,2.30
2018-09-20T10:34:26.760Z,2.00
2018-09-20T10:36:55.388Z,1.85
2018-09-20T10:39:23.772Z,2.10
2018-09-20T10:41:52.217Z,2.50
2018-09-20T10:44:20.621Z,1.92
2018-09-20T10:46:49.134Z,1.85
2018-09-20T10:49:17.532Z,2.20
2018-09-20T10:51:45.973Z,2.30
2018-09-20T10:54:14.373Z,1.87
2018-09-20T10:56:42.836Z,1.80
2018-09-20T10:59:11.245Z,2.00
2018-09-20T11:01:39.669Z,2.25
2018-09-20T11:04:08.107Z,1.90
2018-09-20T11:06:36.597Z,1.90
2018-09-20T11:09:07.787Z,1.65
2018-09-20T11:11:36.218Z,2.10
2018-09-20T11:14:04.665Z,1.70
2018-09-20T11:16:33.231Z,1.90
2018-09-20T11:19:01.328Z,1.90
2018-09-20T11:21:29.785Z,2.17
2018-09-20T11:23:57.920Z,2.33
2018-09-20T11:26:26.389Z,1.90
2018-09-20T11:28:54.793Z,2.10
2018-09-20T11:31:23.253Z,2.22
2018-09-20T11:33:51.665Z,2.10
2018-09-20T11:36:20.213Z,2.42
2018-09-20T11:38:48.588Z,2.05
2018-09-20T11:41:17.036Z,2.05
2018-09-20T11:43:45.164Z,2.40
2018-09-20T11:46:13.568Z,2.05
2018-09-20T11:48:41.997Z,2.40
2018-09-20T11:51:10.152Z,2.55
2018-09-20T11:53:38.324Z,2.30
2018-09-20T11:56:06.886Z,1.95
2018-09-20T11:58:35.338Z,2.05
2018-09-20T12:01:03.765Z,2.12
2018-09-20T12:03:31.899Z,2.20
2018-09-20T12:06:00.313Z,2.08
2018-09-20T12:08:29.309Z,1.95
2018-09-20T12:10:57.883Z,2.12
2018-09-20T12:13:26.337Z,1.90
2018-09-20T12:15:54.748Z,1.85
2018-09-20T12:18:23.168Z,1.90
2018-09-20T12:20:51.276Z,1.87
2018-09-20T12:23:19.689Z,1.82
2018-09-20T12:25:48.141Z,1.75
2018-09-20T12:28:16.582Z,1.70
2018-09-20T12:30:45.018Z,1.62
2018-09-20T12:33:13.494Z,1.75
2018-09-20T12:35:42.008Z,1.70
2018-09-20T12:38:10.337Z,1.67
2018-09-20T12:40:38.751Z,2.02
2018-09-20T12:43:07.261Z,1.70
2018-09-20T12:45:35.642Z,1.65
2018-09-20T12:48:04.315Z,1.98
2018-09-20T12:50:32.729Z,1.80
2018-09-20T12:53:01.217Z,1.72
2018-09-20T12:55:29.661Z,1.50
2018-09-20T12:57:58.088Z,1.40
2018-09-20T13:00:31.928Z,2.42
2018-09-20T13:03:00.112Z,1.37
2018-09-20T13:05:30.620Z,1.52
2018-09-20T13:07:59.062Z,1.70
2018-09-20T13:10:27.513Z,1.90
2018-09-20T13:12:55.969Z,1.65
2018-09-20T13:15:24.387Z,1.50
2018-09-20T13:17:55.830Z,1.45
2018-09-20T13:20:25.040Z,1.37
2018-09-20T13:22:53.478Z,1.30
2018-09-20T13:25:22.126Z,1.57
2018-09-20T13:27:50.536Z,1.50
2018-09-20T13:30:18.933Z,1.62
2018-09-20T13:32:48.574Z,1.60
2018-09-20T13:35:17.209Z,1.45
2018-09-20T13:37:45.653Z,1.60
2018-09-20T13:40:17.433Z,1.75
2018-09-20T13:42:48.216Z,2.08
2018-09-20T13:45:16.829Z,1.87
2018-09-20T13:47:45.247Z,1.90
2018-09-20T13:50:13.700Z,1.45
2018-09-20T13:52:42.179Z,1.20
2018-09-20T13:55:10.624Z,1.70
2018-09-20T13:57:39.114Z,1.50
2018-09-20T14:00:07.719Z,1.57
2018-09-20T14:02:37.330Z,1.70
2018-09-20T14:05:05.992Z,1.55
2018-09-20T14:07:34.992Z,1.30
2018-09-20T14:10:03.565Z,1.37
2018-09-20T14:12:31.987Z,1.45
2018-09-20T14:15:02.886Z,1.67
2018-09-20T14:17:32.571Z,1.57
2018-09-20T14:20:00.732Z,1.85
2018-09-20T14:22:29.148Z,1.62
2018-09-20T14:24:57.600Z,1.45
2018-09-20T14:27:26.040Z,1.27
2018-09-20T14:29:54.493Z,1.20
2018-09-20T14:32:22.941Z,1.17
2018-09-20T14:34:51.383Z,1.12
2018-09-20T14:37:19.801Z,1.22
2018-09-20T14:39:48.245Z,1.22
2018-09-20T14:42:16.727Z,1.10
2018-09-20T14:44:45.149Z,1.50
2018-09-20T14:47:13.624Z,1.20
2018-09-20T14:49:47.914Z,1.30
2018-09-20T14:52:16.930Z,1.60
2018-09-20T14:54:45.442Z,1.30
2018-09-20T14:57:14.509Z,1.35
2018-09-20T14:59:43.503Z,1.10
2018-09-20T15:02:11.994Z,1.57
2018-09-20T15:04:40.483Z,1.50
2018-09-20T15:07:13.201Z,1.70
2018-09-20T15:09:41.738Z,2.00
2018-09-20T15:12:10.142Z,1.77
2018-09-20T15:14:38.617Z,1.72
2018-09-20T15:17:07.052Z,2.25
2018-09-20T15:19:35.488Z,2.00
2018-09-20T15:22:03.869Z,2.00
2018-09-20T15:24:32.317Z,2.10
2018-09-20T15:27:00.788Z,2.05
2018-09-20T15:29:29.313Z,1.80
2018-09-20T15:31:57.712Z,1.80
2018-09-20T15:34:26.180Z,2.00
2018-09-20T15:36:54.590Z,1.80
2018-09-20T15:39:23.064Z,1.70
2018-09-20T15:41:51.513Z,1.92
2018-09-20T15:44:19.896Z,1.80
2018-09-20T15:46:48.344Z,1.90
2018-09-20T15:49:16.728Z,1.87
2018-09-20T15:51:45.196Z,2.08
2018-09-20T15:54:13.620Z,1.98
2018-09-20T15:56:41.772Z,1.87
2018-09-20T15:59:10.175Z,1.80
2018-09-20T16:01:38.304Z,1.62
2018-09-20T16:04:06.780Z,1.80
2018-09-20T16:06:35.200Z,1.92
2018-09-20T16:09:05.018Z,2.12
2018-09-20T16:11:33.469Z,1.72
2018-09-20T16:14:01.908Z,2.12
2018-09-20T16:16:30.012Z,2.00
2018-09-20T16:18:58.433Z,2.08
2018-09-20T16:21:26.863Z,2.22
2018-09-20T16:23:54.953Z,2.30
2018-09-20T16:26:23.370Z,1.70
2018-09-20T16:29:03.788Z,2.02
2018-09-20T16:31:52.227Z,2.00
2018-09-20T16:34:30.527Z,2.10
2018-09-20T16:37:12.509Z,2.25
2018-09-20T16:39:41.804Z,2.00
2018-09-20T16:42:11.017Z,1.87
2018-09-20T16:44:39.471Z,1.72
2018-09-20T16:47:07.903Z,2.22
2018-09-20T16:49:36.332Z,2.55
2018-09-20T16:52:04.791Z,2.22
2018-09-20T16:54:33.252Z,2.60
2018-09-20T16:57:01.638Z,2.40
2018-09-20T16:59:30.076Z,2.17
2018-09-20T17:01:58.160Z,2.02
2018-09-20T17:04:26.610Z,3.12
2018-09-20T17:06:55.009Z,2.12
2018-09-20T17:09:23.184Z,2.62
2018-09-20T17:11:51.593Z,3.00
2018-09-20T17:14:20.151Z,2.27
2018-09-20T17:16:48.553Z,2.35
2018-09-20T17:19:16.661Z,2.05
2018-09-20T17:21:45.276Z,1.90
2018-09-20T17:24:13.717Z,2.27
2018-09-20T17:26:42.137Z,2.35
2018-09-20T17:29:10.547Z,2.00
2018-09-20T17:31:38.976Z,2.22
2018-09-20T17:34:07.665Z,2.35
2018-09-20T17:36:36.369Z,2.67
2018-09-20T17:39:08.887Z,2.25
2018-09-20T17:41:38.159Z,2.77
2018-09-20T17:44:07.753Z,2.55
2018-09-20T17:46:36.217Z,2.98
2018-09-20T17:49:04.801Z,2.55
2018-09-20T17:51:33.859Z,2.52
2018-09-20T17:54:02.604Z,2.52
2018-09-20T17:56:31.982Z,2.37
2018-09-20T17:59:00.997Z,2.90
2018-09-20T18:01:29.464Z,2.40
2018-09-20T18:03:57.890Z,2.80
2018-09-20T18:06:26.319Z,2.77
2018-09-20T18:08:54.750Z,3.12
2018-09-20T18:11:22.876Z,4.17
2018-09-20T18:13:51.293Z,3.02
2018-09-20T18:16:19.757Z,3.30
2018-09-20T18:18:48.166Z,2.87
2018-09-20T18:21:16.595Z,2.70
2018-09-20T18:23:44.718Z,2.65
2018-09-20T18:26:13.144Z,3.47
2018-09-20T18:28:41.579Z,2.95
2018-09-20T18:31:10.016Z,3.50
2018-09-20T18:33:38.561Z,3.10
2018-09-20T18:36:07.047Z,3.10
2018-09-20T18:38:35.448Z,3.35
2018-09-20T18:41:03.580Z,3.33
2018-09-20T18:43:31.968Z,2.58
2018-09-20T18:46:00.385Z,3.45
2018-09-20T18:48:28.795Z,3.25
2018-09-20T18:50:57.237Z,3.62
2018-09-20T18:53:25.678Z,3.22
2018-09-20T18:55:54.105Z,3.58
2018-09-20T18:58:22.545Z,3.50
2018-09-20T19:00:52.732Z,3.22
2018-09-20T19:03:21.678Z,3.52
2018-09-20T19:05:50.101Z,3.58
2018-09-20T19:08:18.500Z,3.55
2018-09-20T19:10:46.937Z,3.65
2018-09-20T19:13:15.380Z,3.62
2018-09-20T19:15:43.790Z,3.42
2018-09-20T19:18:12.204Z,3.60
2018-09-20T19:20:40.868Z,3.90
2018-09-20T19:23:09.340Z,3.40
2018-09-20T19:25:37.793Z,3.52
2018-09-20T19:28:06.239Z,3.87
2018-09-20T19:31:03.314Z,4.47
2018-09-20T19:33:31.760Z,4.87
2018-09-20T19:36:00.161Z,4.50
2018-09-20T19:38:28.625Z,4.20
2018-09-20T19:40:57.108Z,4.25
2018-09-20T19:43:25.536Z,3.45
2018-09-20T19:45:53.937Z,3.92
2018-09-20T19:48:22.373Z,4.12
2018-09-20T19:50:50.805Z,4.62
2018-09-20T19:53:19.237Z,4.40
2018-09-20T19:55:47.632Z,3.58
2018-09-20T19:58:20.447Z,3.80
2018-09-20T20:00:48.834Z,4.30
2018-09-20T20:03:17.349Z,4.17
2018-09-20T20:05:45.772Z,3.58
2018-09-20T20:08:14.292Z,3.87
2018-09-20T20:10:42.794Z,3.75
2018-09-20T20:13:11.256Z,4.08
2018-09-20T20:15:39.666Z,4.00
2018-09-20T20:18:08.087Z,4.45
2018-09-20T20:20:36.494Z,4.40
2018-09-20T20:23:04.973Z,4.15
2018-09-20T20:25:33.431Z,3.77
2018-09-20T20:28:01.877Z,5.08
2018-09-20T20:30:30.280Z,3.87
2018-09-20T20:32:58.670Z,4.03
2018-09-20T20:35:27.121Z,3.35
2018-09-20T20:37:55.534Z,3.55
2018-09-20T20:40:23.668Z,3.80
2018-09-20T20:42:52.082Z,4.30
2018-09-20T20:45:20.271Z,4.70
2018-09-20T20:47:48.684Z,4.53
2018-09-20T20:50:17.208Z,4.45
2018-09-20T20:52:45.597Z,5.30
2018-09-20T20:55:14.135Z,5.40
2018-09-20T20:57:42.529Z,5.55
2018-09-20T21:00:10.941Z,5.47
2018-09-20T21:02:39.344Z,6.17
2018-09-20T21:05:07.496Z,5.90
2018-09-20T21:07:35.889Z,6.50
2018-09-20T21:10:04.411Z,5.60
2018-09-20T21:12:33.065Z,5.28
2018-09-20T21:15:01.551Z,5.37
2018-09-20T21:17:29.996Z,4.67
2018-09-20T21:19:58.457Z,5.10
2018-09-20T21:22:26.901Z,4.22
2018-09-20T21:24:55.336Z,4.17
2018-09-20T21:27:23.820Z,4.60
2018-09-20T21:29:52.291Z,4.60
2018-09-20T21:32:20.729Z,4.45
2018-09-20T21:34:49.169Z,5.00
2018-09-20T21:37:17.580Z,4.30
2018-09-20T21:39:46.140Z,4.15
2018-09-20T21:42:14.555Z,4.92
2018-09-20T21:44:42.992Z,4.42
2018-09-20T21:47:11.444Z,4.08
2018-09-20T21:49:39.925Z,3.72
2018-09-20T21:52:08.356Z,3.83
2018-09-20T21:54:36.497Z,3.27
2018-09-20T21:57:04.946Z,4.15
2018-09-20T21:59:33.397Z,3.65
2018-09-20T22:02:03.054Z,3.77
2018-09-20T22:04:32.352Z,3.65
2018-09-20T22:07:01.217Z,3.62
2018-09-20T22:09:30.362Z,4.20
2018-09-20T22:11:59.051Z,3.72
2018-09-20T22:14:27.458Z,3.80
2018-09-20T22:16:55.617Z,3.92
2018-09-20T22:19:24.008Z,3.65
2018-09-20T22:21:52.442Z,3.87
2018-09-20T22:24:20.840Z,4.47
2018-09-20T22:26:49.548Z,4.12
2018-09-20T22:29:17.989Z,4.25
2018-09-20T22:31:46.404Z,4.20
2018-09-20T22:34:14.504Z,4.08
2018-09-20T22:36:42.940Z,3.77
2018-09-20T22:39:11.740Z,4.10
2018-09-20T22:41:40.165Z,3.62
2018-09-20T22:44:08.621Z,3.95
2018-09-20T22:46:37.053Z,4.30
2018-09-20T22:49:05.585Z,4.00
2018-09-20T22:51:34.042Z,4.45
2018-09-20T22:54:02.460Z,3.52
2018-09-20T22:56:30.942Z,4.47
2018-09-20T22:58:59.329Z,4.35
2018-09-20T23:01:27.768Z,4.70
2018-09-20T23:03:56.203Z,4.58
2018-09-20T23:06:24.635Z,4.62
2018-09-20T23:08:53.344Z,4.20
2018-09-20T23:11:21.766Z,4.22
2018-09-20T23:13:50.179Z,4.15
2018-09-20T23:16:18.598Z,3.80
2018-09-20T23:18:47.025Z,3.90
2018-09-20T23:21:15.437Z,3.90
2018-09-20T23:23:43.825Z,4.55
2018-09-20T23:27:41.453Z,3.37
2018-09-20T23:30:10.642Z,3.25
2018-09-20T23:32:39.283Z,4.03
2018-09-20T23:35:07.693Z,3.98
2018-09-20T23:37:36.140Z,3.83
2018-09-20T23:40:04.613Z,3.60
2018-09-20T23:42:33.041Z,3.72
2018-09-20T23:45:01.473Z,4.20
2018-09-20T23:47:29.956Z,4.15
2018-09-20T23:49:58.355Z,4.28
2018-09-20T23:52:26.788Z,4.47
2018-09-20T23:54:55.260Z,4.33
2018-09-20T23:57:23.411Z,3.75
2018-09-20T23:59:51.812Z,3.75
